createdAt,value
2019-03-24T00:02:26.150Z,15.92
2019-03-24T00:04:52.312Z,16.31
2019-03-24T00:07:18.502Z,16.55
2019-03-24T00:09:44.664Z,16.60
2019-03-24T00:12:10.828Z,16.51
2019-03-24T00:14:37.015Z,16.46
2019-03-24T00:17:03.375Z,16.20
2019-03-24T00:19:29.525Z,16.18
2019-03-24T00:21:55.719Z,16.11
2019-03-24T00:24:21.872Z,15.86
2019-03-24T00:26:48.040Z,15.93
2019-03-24T00:29:14.731Z,15.94
2019-03-24T00:31:40.882Z,16.00
2019-03-24T00:34:07.036Z,15.88
2019-03-24T00:36:33.230Z,15.72
2019-03-24T00:38:59.392Z,15.66
2019-03-24T00:41:25.551Z,15.62
2019-03-24T00:43:51.802Z,15.29
2019-03-24T00:46:17.964Z,15.32
2019-03-24T00:48:44.126Z,15.17
2019-03-24T00:51:10.413Z,15.30
2019-03-24T00:53:36.571Z,15.29
2019-03-24T00:56:03.077Z,15.40
2019-03-24T00:58:29.320Z,15.40
2019-03-24T01:00:55.480Z,15.31
2019-03-24T01:03:21.638Z,15.21
2019-03-24T01:05:47.838Z,15.03
2019-03-24T01:08:14.390Z,14.91
2019-03-24T01:10:40.541Z,14.80
2019-03-24T01:13:06.728Z,14.67
2019-03-24T01:15:32.891Z,14.35
2019-03-24T01:17:59.054Z,14.41
2019-03-24T01:20:25.243Z,14.42
2019-03-24T01:22:51.396Z,14.09
2019-03-24T01:25:17.556Z,14.21
2019-03-24T01:27:43.854Z,14.28
2019-03-24T01:30:10.406Z,14.19
2019-03-24T01:32:36.566Z,14.32
2019-03-24T01:35:04.661Z,14.33
2019-03-24T01:37:30.819Z,14.37
2019-03-24T01:39:56.975Z,14.33
2019-03-24T01:42:23.162Z,14.25
2019-03-24T01:44:51.004Z,14.22
2019-03-24T01:47:17.155Z,13.99
2019-03-24T01:49:43.365Z,13.85
2019-03-24T01:52:09.535Z,13.97
2019-03-24T01:54:35.693Z,13.82
2019-03-24T01:57:01.882Z,13.92
2019-03-24T01:59:28.040Z,14.02
2019-03-24T02:01:54.201Z,14.27
2019-03-24T02:04:20.389Z,14.36
2019-03-24T02:06:46.554Z,14.22
2019-03-24T02:09:12.814Z,14.18
2019-03-24T02:11:39.022Z,14.02
2019-03-24T02:14:05.276Z,13.77
2019-03-24T02:16:31.431Z,13.60
2019-03-24T02:18:57.620Z,13.64
2019-03-24T02:21:23.871Z,13.63
2019-03-24T02:23:50.018Z,13.53
2019-03-24T02:26:16.206Z,13.60
2019-03-24T02:28:42.367Z,13.66
2019-03-24T02:31:08.528Z,13.64
2019-03-24T02:33:34.716Z,13.64
2019-03-24T02:36:01.284Z,13.60
2019-03-24T02:38:27.439Z,13.71
2019-03-24T02:40:53.622Z,13.81
2019-03-24T02:43:19.782Z,13.67
2019-03-24T02:45:46.091Z,13.58
2019-03-24T02:48:12.278Z,13.53
2019-03-24T02:50:38.432Z,13.55
2019-03-24T02:53:04.588Z,13.71
2019-03-24T02:55:30.886Z,13.67
2019-03-24T02:57:57.051Z,13.64
2019-03-24T03:00:23.305Z,13.61
2019-03-24T03:02:49.498Z,13.59
2019-03-24T03:05:15.655Z,13.53
2019-03-24T03:07:41.824Z,13.38
2019-03-24T03:10:08.610Z,13.24
2019-03-24T03:12:34.757Z,13.34
2019-03-24T03:15:00.917Z,13.27
2019-03-24T03:17:27.118Z,13.24
2019-03-24T03:19:53.894Z,13.43
2019-03-24T03:22:20.433Z,13.50
2019-03-24T03:24:46.633Z,13.32
2019-03-24T03:27:12.782Z,13.48
2019-03-24T03:29:38.935Z,13.44
2019-03-24T03:32:05.154Z,13.32
2019-03-24T03:34:31.374Z,13.18
2019-03-24T03:36:57.534Z,13.20
2019-03-24T03:39:23.752Z,13.15
2019-03-24T03:41:50.009Z,13.07
2019-03-24T03:44:16.159Z,13.04
2019-03-24T03:46:52.553Z,13.02
2019-03-24T03:49:10.453Z,13.16
2019-03-24T03:51:36.611Z,13.14
2019-03-24T03:54:02.906Z,13.26
2019-03-24T03:56:29.062Z,13.24
2019-03-24T03:58:55.222Z,13.31
2019-03-24T04:01:21.418Z,13.27
2019-03-24T04:03:47.588Z,13.27
2019-03-24T04:06:13.730Z,13.38
2019-03-24T04:08:39.917Z,13.31
2019-03-24T04:11:06.176Z,13.31
2019-03-24T04:13:32.332Z,13.20
2019-03-24T04:15:58.520Z,13.06
2019-03-24T04:18:24.777Z,13.14
2019-03-24T04:20:50.935Z,13.16
2019-03-24T04:23:17.135Z,13.20
2019-03-24T04:25:43.301Z,13.13
2019-03-24T04:28:09.454Z,13.22
2019-03-24T04:30:35.692Z,13.27
2019-03-24T04:33:01.890Z,13.33
2019-03-24T04:35:28.052Z,13.40
2019-03-24T04:37:54.247Z,13.54
2019-03-24T04:40:20.400Z,13.67
2019-03-24T04:42:46.604Z,14.38
2019-03-24T04:45:12.759Z,15.90
2019-03-24T04:47:39.022Z,16.54
2019-03-24T04:50:06.288Z,16.02
2019-03-24T04:52:32.475Z,14.82
2019-03-24T04:54:58.642Z,14.90
2019-03-24T04:57:24.901Z,15.57
2019-03-24T04:59:51.086Z,17.11
2019-03-24T05:02:17.235Z,18.57
2019-03-24T05:04:43.412Z,20.04
2019-03-24T05:07:10.015Z,20.70
2019-03-24T05:09:36.177Z,21.53
2019-03-24T05:12:02.342Z,21.22
2019-03-24T05:14:28.530Z,21.44
2019-03-24T05:16:54.692Z,22.37
2019-03-24T05:19:20.856Z,22.98
2019-03-24T05:21:47.059Z,23.00
2019-03-24T05:24:13.211Z,23.39
2019-03-24T05:26:39.378Z,23.28
2019-03-24T05:29:05.605Z,23.39
2019-03-24T05:31:31.764Z,22.78
2019-03-24T05:33:57.926Z,22.53
2019-03-24T05:36:24.467Z,21.07
2019-03-24T05:38:50.635Z,21.30
2019-03-24T05:41:16.792Z,22.43
2019-03-24T05:43:43.013Z,23.69
2019-03-24T05:46:09.168Z,23.39
2019-03-24T05:48:35.379Z,24.05
2019-03-24T05:51:01.598Z,23.95
2019-03-24T05:53:27.756Z,23.75
2019-03-24T05:55:53.929Z,21.33
2019-03-24T05:58:20.158Z,19.14
2019-03-24T06:00:46.430Z,19.44
2019-03-24T06:03:12.599Z,19.75
2019-03-24T06:05:38.808Z,20.47
2019-03-24T06:08:04.968Z,21.22
2019-03-24T06:10:31.131Z,20.32
2019-03-24T06:12:57.337Z,21.23
2019-03-24T06:15:23.500Z,20.68
2019-03-24T06:17:49.666Z,20.05
2019-03-24T06:20:16.767Z,20.33
2019-03-24T06:22:42.925Z,21.10
2019-03-24T06:25:09.594Z,20.54
2019-03-24T06:27:35.792Z,20.20
2019-03-24T06:30:03.855Z,21.24
2019-03-24T06:32:30.009Z,20.81
2019-03-24T06:34:56.214Z,21.08
2019-03-24T06:37:22.385Z,21.11
2019-03-24T06:39:48.539Z,20.59
2019-03-24T06:42:14.749Z,20.38
2019-03-24T06:44:40.920Z,21.12
2019-03-24T06:47:07.074Z,21.00
2019-03-24T06:49:33.429Z,20.85
2019-03-24T06:51:59.716Z,21.49
2019-03-24T06:54:25.984Z,21.89
2019-03-24T06:56:52.210Z,22.43
2019-03-24T06:59:21.609Z,22.04
2019-03-24T07:01:47.879Z,20.89
2019-03-24T07:04:15.891Z,20.66
2019-03-24T07:06:48.672Z,20.76
2019-03-24T07:09:16.644Z,20.85
2019-03-24T07:11:45.712Z,21.73
2019-03-24T07:14:11.881Z,21.68
2019-03-24T07:16:38.035Z,21.89
2019-03-24T07:19:04.245Z,22.20
2019-03-24T07:21:30.424Z,21.56
2019-03-24T07:23:56.575Z,21.43
2019-03-24T07:26:22.768Z,21.07
2019-03-24T07:28:48.957Z,20.98
2019-03-24T07:31:15.107Z,21.18
2019-03-24T07:33:41.300Z,20.30
2019-03-24T07:36:07.458Z,20.88
2019-03-24T07:38:33.632Z,21.63
2019-03-24T07:40:59.937Z,22.32
2019-03-24T07:43:26.091Z,22.92
2019-03-24T07:45:52.248Z,23.63
2019-03-24T07:48:19.468Z,23.77
2019-03-24T07:50:46.831Z,23.11
2019-03-24T07:53:12.983Z,23.19
2019-03-24T07:55:39.179Z,22.40
2019-03-24T07:58:05.477Z,21.72
2019-03-24T08:00:33.775Z,22.24
2019-03-24T08:03:00.079Z,22.47
2019-03-24T08:05:26.241Z,22.53
2019-03-24T08:07:52.396Z,23.41
2019-03-24T08:10:18.588Z,23.76
2019-03-24T08:12:44.764Z,23.12
2019-03-24T08:15:10.896Z,22.17
2019-03-24T08:17:37.092Z,20.11
2019-03-24T08:20:05.458Z,22.10
2019-03-24T08:22:31.616Z,23.45
2019-03-24T08:24:57.823Z,22.58
2019-03-24T08:27:23.973Z,22.60
2019-03-24T08:29:50.134Z,22.59
2019-03-24T08:32:16.333Z,22.95
2019-03-24T08:34:42.592Z,21.85
2019-03-24T08:37:09.173Z,21.39
2019-03-24T08:39:35.420Z,22.58
2019-03-24T08:42:01.684Z,23.20
2019-03-24T08:44:27.838Z,22.14
2019-03-24T08:46:54.065Z,23.12
2019-03-24T08:49:20.229Z,22.99
2019-03-24T08:51:46.529Z,23.01
2019-03-24T08:54:12.843Z,22.64
2019-03-24T08:56:39.013Z,22.65
2019-03-24T08:59:05.172Z,22.80
2019-03-24T09:01:31.379Z,23.14
2019-03-24T09:03:57.533Z,22.53
2019-03-24T09:06:23.689Z,23.55
2019-03-24T09:08:50.005Z,24.31
2019-03-24T09:11:16.279Z,24.76
2019-03-24T09:13:42.447Z,22.65
2019-03-24T09:16:08.668Z,22.65
2019-03-24T09:18:34.827Z,23.82
2019-03-24T09:21:00.984Z,24.16
2019-03-24T09:23:27.294Z,23.91
2019-03-24T09:25:53.467Z,23.93
2019-03-24T09:28:19.606Z,23.79
2019-03-24T09:30:45.819Z,24.43
2019-03-24T09:33:11.980Z,24.12
2019-03-24T09:35:38.141Z,23.67
2019-03-24T09:38:04.543Z,23.95
2019-03-24T09:40:33.506Z,24.48
2019-03-24T09:43:00.660Z,24.60
2019-03-24T09:45:28.179Z,25.08
2019-03-24T09:47:54.436Z,24.63
2019-03-24T09:50:20.611Z,24.44
2019-03-24T09:52:46.980Z,24.55
2019-03-24T09:55:13.254Z,25.86
2019-03-24T09:57:39.412Z,26.28
2019-03-24T10:00:06.027Z,25.72
2019-03-24T10:02:32.286Z,25.31
2019-03-24T10:04:58.553Z,25.89
2019-03-24T10:07:24.873Z,25.01
2019-03-24T10:09:51.132Z,25.26
2019-03-24T10:12:17.396Z,25.12
2019-03-24T10:14:43.606Z,24.95
2019-03-24T10:17:09.765Z,23.83
2019-03-24T10:19:36.040Z,24.74
2019-03-24T10:22:02.651Z,24.59
2019-03-24T10:24:28.832Z,24.87
2019-03-24T10:26:55.096Z,24.91
2019-03-24T10:29:21.400Z,25.51
2019-03-24T10:31:47.558Z,25.63
2019-03-24T10:34:13.712Z,24.31
2019-03-24T10:36:40.021Z,23.82
2019-03-24T10:39:06.186Z,23.36
2019-03-24T10:41:32.446Z,25.41
2019-03-24T10:43:58.878Z,25.41
2019-03-24T10:46:25.040Z,24.97
2019-03-24T10:48:51.194Z,25.52
2019-03-24T10:51:17.489Z,25.73
2019-03-24T10:53:43.657Z,26.08
2019-03-24T10:56:09.815Z,24.26
2019-03-24T10:58:36.123Z,25.70
2019-03-24T11:01:02.456Z,26.03
2019-03-24T11:03:28.750Z,27.10
2019-03-24T11:05:54.961Z,24.56
2019-03-24T11:08:21.122Z,25.25
2019-03-24T11:10:47.378Z,25.28
2019-03-24T11:13:13.581Z,24.33
2019-03-24T11:15:39.745Z,25.12
2019-03-24T11:18:05.920Z,26.07
2019-03-24T11:20:32.125Z,25.77
2019-03-24T11:22:58.408Z,25.46
2019-03-24T11:25:24.676Z,24.82
2019-03-24T11:27:50.979Z,24.18
2019-03-24T11:30:18.843Z,25.62
2019-03-24T11:32:45.007Z,26.70
2019-03-24T11:35:11.208Z,25.52
2019-03-24T11:37:37.363Z,26.63
2019-03-24T11:40:07.362Z,27.03
2019-03-24T11:42:33.564Z,25.06
2019-03-24T11:44:59.841Z,25.55
2019-03-24T11:47:26.808Z,27.11
2019-03-24T11:49:53.324Z,27.85
2019-03-24T11:52:19.467Z,24.99
2019-03-24T11:54:45.679Z,25.71
2019-03-24T11:57:11.873Z,26.68
2019-03-24T11:59:38.161Z,27.98
2019-03-24T12:02:04.395Z,28.36
2019-03-24T12:04:30.619Z,28.86
2019-03-24T12:06:56.773Z,27.30
2019-03-24T12:09:22.927Z,25.94
2019-03-24T12:11:49.231Z,25.95
2019-03-24T12:14:15.399Z,26.86
2019-03-24T12:16:41.647Z,26.50
2019-03-24T12:19:07.857Z,27.67
2019-03-24T12:21:34.016Z,28.46
2019-03-24T12:24:00.192Z,29.20
2019-03-24T12:26:26.403Z,29.11
2019-03-24T12:28:52.560Z,26.70
2019-03-24T12:31:18.715Z,26.39
2019-03-24T12:33:44.917Z,25.34
2019-03-24T12:36:11.075Z,26.49
2019-03-24T12:38:37.235Z,27.12
2019-03-24T12:41:03.431Z,26.93
2019-03-24T12:43:29.602Z,27.79
2019-03-24T12:45:55.749Z,28.00
2019-03-24T12:48:22.060Z,28.50
2019-03-24T12:50:48.234Z,27.67
2019-03-24T12:53:14.391Z,27.68
2019-03-24T12:55:40.668Z,26.72
2019-03-24T12:58:06.877Z,26.77
2019-03-24T13:00:35.178Z,25.60
2019-03-24T13:03:01.375Z,26.21
2019-03-24T13:05:27.639Z,27.18
2019-03-24T13:07:55.095Z,26.84
2019-03-24T13:10:21.298Z,26.48
2019-03-24T13:12:47.461Z,25.17
2019-03-24T13:15:13.706Z,26.89
2019-03-24T13:17:39.922Z,26.90
2019-03-24T13:20:07.481Z,27.82
2019-03-24T13:22:33.748Z,27.95
2019-03-24T13:24:59.946Z,26.87
2019-03-24T13:27:26.105Z,27.20
2019-03-24T13:29:52.269Z,27.18
2019-03-24T13:32:18.463Z,26.21
2019-03-24T13:34:44.638Z,25.09
2019-03-24T13:37:10.810Z,27.03
2019-03-24T13:39:37.007Z,27.28
2019-03-24T13:42:03.170Z,26.84
2019-03-24T13:44:29.333Z,26.69
2019-03-24T13:46:55.537Z,27.29
2019-03-24T13:49:21.692Z,26.14
2019-03-24T13:51:47.853Z,26.42
2019-03-24T13:54:14.169Z,25.10
2019-03-24T13:56:40.630Z,25.71
2019-03-24T13:59:06.790Z,25.88
2019-03-24T14:01:32.995Z,26.25
2019-03-24T14:03:59.152Z,25.95
2019-03-24T14:06:25.308Z,25.77
2019-03-24T14:08:51.516Z,25.61
2019-03-24T14:11:17.683Z,25.87
2019-03-24T14:13:43.978Z,26.88
2019-03-24T14:16:10.194Z,26.14
2019-03-24T14:18:39.722Z,25.00
2019-03-24T14:21:05.883Z,25.76
2019-03-24T14:23:32.070Z,24.73
2019-03-24T14:25:58.331Z,25.81
2019-03-24T14:28:24.586Z,24.79
2019-03-24T14:30:50.779Z,25.51
2019-03-24T14:33:17.037Z,25.96
2019-03-24T14:35:43.373Z,26.29
2019-03-24T14:38:09.655Z,26.86
2019-03-24T14:40:36.047Z,26.83
2019-03-24T14:43:02.310Z,26.73
2019-03-24T14:45:28.504Z,26.42
2019-03-24T14:47:54.656Z,26.95
2019-03-24T14:50:20.817Z,26.37
2019-03-24T14:52:47.008Z,26.86
2019-03-24T14:55:13.170Z,27.46
2019-03-24T14:57:39.340Z,27.00
2019-03-24T15:00:07.139Z,27.17
2019-03-24T15:02:33.311Z,26.86
2019-03-24T15:04:59.472Z,27.47
2019-03-24T15:07:25.673Z,26.38
2019-03-24T15:09:51.841Z,26.29
2019-03-24T15:12:18.005Z,26.63
2019-03-24T15:14:44.204Z,26.41
2019-03-24T15:17:10.471Z,25.77
2019-03-24T15:19:36.623Z,26.34
2019-03-24T15:22:02.839Z,25.36
2019-03-24T15:24:28.994Z,25.28
2019-03-24T15:26:55.163Z,25.11
2019-03-24T15:29:21.360Z,25.30
2019-03-24T15:31:47.521Z,25.30
2019-03-24T15:34:13.705Z,25.66
2019-03-24T15:36:39.995Z,25.57
2019-03-24T15:39:07.978Z,25.61
2019-03-24T15:41:34.138Z,25.98
2019-03-24T15:44:00.335Z,25.76
2019-03-24T15:46:26.490Z,25.52
2019-03-24T15:48:52.752Z,25.73
2019-03-24T15:51:19.062Z,25.93
2019-03-24T15:53:45.225Z,25.94
2019-03-24T15:56:11.384Z,25.41
2019-03-24T15:58:37.712Z,25.02
2019-03-24T16:01:03.922Z,24.89
2019-03-24T16:03:30.087Z,24.60
2019-03-24T16:05:56.578Z,24.37
2019-03-24T16:08:22.741Z,24.15
2019-03-24T16:10:48.900Z,23.71
2019-03-24T16:13:15.109Z,23.74
2019-03-24T16:15:41.277Z,23.78
2019-03-24T16:18:07.434Z,23.74
2019-03-24T16:20:33.656Z,23.38
2019-03-24T16:22:59.810Z,23.18
2019-03-24T16:25:25.967Z,23.09
2019-03-24T16:27:52.288Z,22.90
2019-03-24T16:30:18.546Z,22.93
2019-03-24T16:32:44.711Z,22.82
2019-03-24T16:35:11.198Z,22.55
2019-03-24T16:37:37.463Z,22.47
2019-03-24T16:40:06.029Z,22.43
2019-03-24T16:42:32.231Z,22.30
2019-03-24T16:44:58.396Z,22.08
2019-03-24T16:47:24.547Z,21.87
2019-03-24T16:49:50.768Z,21.78
2019-03-24T16:52:16.913Z,21.70
2019-03-24T16:54:43.063Z,21.19
2019-03-24T16:57:09.265Z,21.00
2019-03-24T16:59:35.447Z,20.93
2019-03-24T17:02:01.731Z,20.85
2019-03-24T17:04:27.929Z,20.93
2019-03-24T17:06:54.196Z,20.85
2019-03-24T17:09:20.342Z,20.73
2019-03-24T17:11:46.567Z,20.69
2019-03-24T17:14:12.837Z,20.53
2019-03-24T17:16:39.098Z,20.39
2019-03-24T17:19:05.427Z,20.18
2019-03-24T17:21:31.579Z,20.12
2019-03-24T17:23:57.737Z,20.01
2019-03-24T17:26:23.952Z,20.01
2019-03-24T17:28:50.245Z,19.87
2019-03-24T17:31:16.422Z,19.84
2019-03-24T17:33:42.736Z,19.78
2019-03-24T17:36:08.888Z,19.47
2019-03-24T17:38:35.047Z,19.40
2019-03-24T17:41:01.343Z,19.31
2019-03-24T17:43:27.501Z,19.13
2019-03-24T17:45:53.660Z,19.18
2019-03-24T17:48:20.037Z,19.38
2019-03-24T17:50:46.196Z,19.64
2019-03-24T17:53:12.471Z,19.75
2019-03-24T17:55:38.673Z,19.75
2019-03-24T17:58:04.833Z,19.72
2019-03-24T18:00:36.096Z,19.71
2019-03-24T18:03:02.312Z,19.75
2019-03-24T18:05:28.609Z,19.71
2019-03-24T18:07:54.877Z,19.73
2019-03-24T18:10:21.083Z,19.70
2019-03-24T18:12:47.251Z,19.69
2019-03-24T18:15:13.555Z,19.64
2019-03-24T18:17:39.851Z,19.60
2019-03-24T18:20:06.909Z,19.69
2019-03-24T18:22:33.071Z,19.71
2019-03-24T18:24:59.270Z,19.58
2019-03-24T18:27:25.459Z,19.41
2019-03-24T18:29:51.625Z,19.42
2019-03-24T18:32:17.821Z,19.41
2019-03-24T18:34:43.992Z,19.28
2019-03-24T18:37:10.207Z,19.29
2019-03-24T18:39:36.450Z,19.25
2019-03-24T18:42:02.617Z,19.18
2019-03-24T18:44:28.785Z,19.16
2019-03-24T18:46:54.990Z,19.11
2019-03-24T18:49:21.250Z,19.20
2019-03-24T18:51:47.428Z,19.26
2019-03-24T18:54:13.729Z,19.15
2019-03-24T18:56:39.911Z,19.38
2019-03-24T18:59:06.062Z,19.66
2019-03-24T19:01:32.266Z,19.79
2019-03-24T19:03:58.449Z,19.66
2019-03-24T19:06:24.613Z,19.49
2019-03-24T19:08:50.803Z,19.30
2019-03-24T19:11:16.960Z,19.43
2019-03-24T19:13:43.222Z,19.72
2019-03-24T19:16:09.434Z,19.49
2019-03-24T19:18:35.599Z,19.36
2019-03-24T19:21:01.766Z,19.63
2019-03-24T19:23:28.072Z,19.15
2019-03-24T19:25:54.230Z,19.49
2019-03-24T19:28:20.387Z,19.09
2019-03-24T19:30:46.696Z,19.44
2019-03-24T19:33:12.864Z,19.22
2019-03-24T19:35:39.027Z,19.54
2019-03-24T19:38:05.228Z,19.12
2019-03-24T19:40:31.783Z,19.48
2019-03-24T19:42:58.811Z,19.18
2019-03-24T19:45:25.416Z,19.82
2019-03-24T19:47:52.776Z,19.87
2019-03-24T19:50:18.931Z,19.83
2019-03-24T19:52:45.184Z,20.14
2019-03-24T19:55:11.690Z,19.91
2019-03-24T19:57:37.847Z,18.86
2019-03-24T20:00:05.861Z,19.50
2019-03-24T20:02:32.022Z,19.44
2019-03-24T20:04:58.240Z,19.24
2019-03-24T20:07:24.431Z,19.68
2019-03-24T20:09:50.592Z,19.12
2019-03-24T20:12:16.850Z,19.43
2019-03-24T20:14:43.055Z,19.42
2019-03-24T20:17:09.208Z,19.15
2019-03-24T20:19:35.368Z,19.12
2019-03-24T20:22:01.578Z,19.36
2019-03-24T20:24:27.730Z,19.12
2019-03-24T20:26:53.888Z,18.89
2019-03-24T20:29:20.198Z,18.52
2019-03-24T20:31:46.463Z,19.23
2019-03-24T20:34:12.620Z,18.87
2019-03-24T20:36:38.980Z,18.17
2019-03-24T20:39:07.404Z,18.28
2019-03-24T20:41:33.716Z,18.46
2019-03-24T20:43:59.931Z,18.59
2019-03-24T20:46:26.194Z,18.55
2019-03-24T20:48:52.375Z,18.75
2019-03-24T20:51:18.564Z,18.65
2019-03-24T20:53:44.724Z,18.60
2019-03-24T20:56:10.889Z,18.64
2019-03-24T20:58:37.192Z,19.05
2019-03-24T21:01:03.451Z,18.78
2019-03-24T21:03:29.617Z,19.00
2019-03-24T21:05:55.861Z,19.06
2019-03-24T21:08:22.028Z,19.21
2019-03-24T21:10:48.303Z,18.73
2019-03-24T21:13:14.499Z,18.66
2019-03-24T21:15:40.661Z,19.32
2019-03-24T21:18:06.925Z,18.90
2019-03-24T21:20:33.215Z,19.37
2019-03-24T21:22:59.493Z,18.95
2019-03-24T21:25:25.645Z,19.26
2019-03-24T21:27:51.845Z,19.06
2019-03-24T21:30:21.609Z,19.15
2019-03-24T21:32:47.780Z,19.23
2019-03-24T21:35:13.977Z,18.86
2019-03-24T21:37:40.134Z,18.33
2019-03-24T21:40:06.710Z,18.74
2019-03-24T21:42:32.898Z,18.10
2019-03-24T21:44:59.066Z,18.55
2019-03-24T21:47:25.334Z,18.75
2019-03-24T21:49:51.562Z,19.08
2019-03-24T21:52:17.708Z,19.24
2019-03-24T21:54:43.871Z,18.89
2019-03-24T21:57:10.077Z,19.09
2019-03-24T21:59:36.236Z,18.75
2019-03-24T22:02:02.535Z,18.47
2019-03-24T22:04:28.901Z,18.65
2019-03-24T22:06:55.126Z,18.04
2019-03-24T22:09:21.296Z,18.09
2019-03-24T22:11:47.502Z,17.99
2019-03-24T22:14:15.519Z,18.29
2019-03-24T22:16:41.722Z,17.90
2019-03-24T22:19:07.928Z,17.65
2019-03-24T22:21:34.088Z,18.51
2019-03-24T22:24:00.244Z,18.71
2019-03-24T22:26:26.447Z,18.80
2019-03-24T22:28:52.627Z,18.43
2019-03-24T22:31:18.772Z,18.11
2019-03-24T22:33:45.077Z,17.67
2019-03-24T22:36:11.245Z,17.47
2019-03-24T22:38:37.403Z,17.52
2019-03-24T22:41:03.614Z,17.55
2019-03-24T22:43:29.776Z,17.33
2019-03-24T22:45:55.933Z,17.56
2019-03-24T22:48:22.128Z,17.58
2019-03-24T22:50:48.291Z,17.12
2019-03-24T22:53:14.443Z,17.73
2019-03-24T22:55:40.652Z,17.81
2019-03-24T22:58:06.910Z,17.62
2019-03-24T23:00:52.685Z,17.44
2019-03-24T23:03:18.859Z,17.78
2019-03-24T23:05:45.069Z,17.70
2019-03-24T23:08:11.397Z,17.23
2019-03-24T23:10:37.564Z,17.76
2019-03-24T23:13:03.725Z,17.89
2019-03-24T23:15:29.927Z,17.59
2019-03-24T23:17:56.212Z,18.09
2019-03-24T23:20:22.367Z,17.92
2019-03-24T23:22:48.588Z,17.85
2019-03-24T23:25:14.744Z,18.22
2019-03-24T23:27:40.998Z,18.69
2019-03-24T23:30:07.904Z,18.55
2019-03-24T23:32:34.062Z,18.79
2019-03-24T23:35:00.397Z,18.78
2019-03-24T23:37:26.660Z,18.71
2019-03-24T23:39:52.800Z,18.37
2019-03-24T23:42:19.259Z,18.19
2019-03-24T23:44:45.471Z,18.38
2019-03-24T23:47:11.691Z,18.18
2019-03-24T23:49:37.996Z,18.61
2019-03-24T23:52:04.212Z,18.71
2019-03-24T23:54:30.373Z,18.51
2019-03-24T23:56:56.533Z,18.25
2019-03-24T23:59:22.740Z,18.61
